createdAt,value
2023-01-01T00:03:01.640Z,76.5
2023-01-01T00:08:07.869Z,76.5
2023-01-01T00:13:14.057Z,76.5
2023-01-01T00:18:20.268Z,76.5
2023-01-01T00:23:26.503Z,76.5
2023-01-01T00:28:32.688Z,76.5
2023-01-01T00:33:38.942Z,76.5
2023-01-01T00:38:45.105Z,76.0
2023-01-01T00:43:51.305Z,76.0
2023-01-01T00:48:57.521Z,76.0
2023-01-01T00:54:03.753Z,75.5
2023-01-01T00:59:09.937Z,75.0
2023-01-01T01:04:16.298Z,75.0
2023-01-01T01:09:22.455Z,74.5
2023-01-01T01:14:27.572Z,74.5
2023-01-01T01:19:33.801Z,74.0
2023-01-01T01:24:40.003Z,74.0
2023-01-01T01:29:46.203Z,74.0
2023-01-01T01:34:52.403Z,74.0
2023-01-01T01:39:58.627Z,74.0
2023-01-01T01:45:04.820Z,74.0
2023-01-01T01:50:11.062Z,74.0
2023-01-01T01:55:17.252Z,73.5
2023-01-01T02:00:23.485Z,73.0
2023-01-01T02:05:29.658Z,73.0
2023-01-01T02:10:35.862Z,73.0
2023-01-01T02:15:42.139Z,73.0
2023-01-01T02:20:48.300Z,73.0
2023-01-01T02:25:54.504Z,73.0
2023-01-01T02:31:00.733Z,73.0
2023-01-01T02:36:06.912Z,73.0
2023-01-01T02:41:13.125Z,73.5
2023-01-01T02:51:25.535Z,73.0
2023-01-01T02:56:31.761Z,73.0
2023-01-01T03:01:38.093Z,73.5
2023-01-01T03:06:44.159Z,73.5
2023-01-01T03:11:50.365Z,73.5
2023-01-01T03:16:56.573Z,73.5
2023-01-01T03:22:02.787Z,73.5
2023-01-01T03:27:08.991Z,73.5
2023-01-01T03:32:15.199Z,73.5
2023-01-01T03:37:21.416Z,73.5
2023-01-01T03:42:27.621Z,73.5
2023-01-01T03:47:33.831Z,74.0
2023-01-01T03:52:40.034Z,74.0
2023-01-01T03:57:46.244Z,74.0
2023-01-01T04:02:52.509Z,74.0
2023-01-01T04:07:58.876Z,74.0
2023-01-01T04:13:04.875Z,74.0
2023-01-01T04:18:11.110Z,74.0
2023-01-01T04:23:17.287Z,74.0
2023-01-01T04:28:23.500Z,74.0
2023-01-01T04:33:29.693Z,74.5
2023-01-01T04:38:35.902Z,74.5
2023-01-01T04:43:42.109Z,74.5
2023-01-01T04:48:48.318Z,74.5
2023-01-01T04:53:54.531Z,74.5
2023-01-01T04:59:00.777Z,75.0
2023-01-01T05:04:06.941Z,75.0
2023-01-01T05:09:13.160Z,75.5
2023-01-01T05:14:19.365Z,75.5
2023-01-01T05:19:25.583Z,75.5
2023-01-01T05:24:31.782Z,76.0
2023-01-01T05:29:38.101Z,76.0
2023-01-01T05:34:44.309Z,76.5
2023-01-01T05:44:56.610Z,76.5
2023-01-01T05:55:09.141Z,77.0
2023-01-01T06:00:15.289Z,77.0
2023-01-01T06:05:21.447Z,77.5
2023-01-01T06:10:27.653Z,77.5
2023-01-01T06:15:33.862Z,78.0
2023-01-01T06:20:40.069Z,78.0
2023-01-01T06:25:46.276Z,78.0
2023-01-01T06:30:52.530Z,78.0
2023-01-01T06:35:58.696Z,78.5
2023-01-01T06:41:04.918Z,78.5
2023-01-01T06:46:10.198Z,78.5
2023-01-01T06:51:16.333Z,78.5
2023-01-01T06:56:22.579Z,79.0
2023-01-01T07:01:28.867Z,79.5
2023-01-01T07:06:34.959Z,80.5
2023-01-01T07:11:41.178Z,81.0
2023-01-01T07:16:46.401Z,82.0
2023-01-01T07:21:52.603Z,83.0
2023-01-01T07:26:58.833Z,83.5
2023-01-01T07:32:05.037Z,84.5
2023-01-01T07:37:11.249Z,85.0
2023-01-01T07:42:17.470Z,85.5
2023-01-01T07:47:23.694Z,86.0
2023-01-01T07:52:29.901Z,87.0
2023-01-01T07:57:36.113Z,87.5
2023-01-01T08:02:42.493Z,88.0
2023-01-01T08:07:48.559Z,88.5
2023-01-01T08:12:54.744Z,88.5
2023-01-01T08:18:00.961Z,89.0
2023-01-01T08:23:07.745Z,89.5
2023-01-01T08:28:13.400Z,89.5
2023-01-01T08:33:19.599Z,90.0
2023-01-01T08:38:25.810Z,90.0
2023-01-01T08:43:32.024Z,90.0
2023-01-01T08:48:38.234Z,90.5
2023-01-01T08:53:48.777Z,90.5
2023-01-01T08:58:50.661Z,91.0
2023-01-01T09:03:56.866Z,91.0
2023-01-01T09:09:03.089Z,91.5
2023-01-01T09:14:09.297Z,91.5
2023-01-01T09:19:15.492Z,92.0
2023-01-01T09:24:21.712Z,92.0
2023-01-01T09:29:27.904Z,92.5
2023-01-01T09:34:34.130Z,93.0
2023-01-01T09:39:40.343Z,93.0
2023-01-01T09:44:46.530Z,93.5
2023-01-01T09:49:52.750Z,93.5
2023-01-01T09:54:58.995Z,93.5
2023-01-01T10:00:05.169Z,94.0
2023-01-01T10:05:11.373Z,94.0
2023-01-01T10:10:17.573Z,94.0
2023-01-01T10:15:23.781Z,94.0
2023-01-01T10:20:29.992Z,94.0
2023-01-01T10:25:36.200Z,94.0
2023-01-01T10:30:42.427Z,94.0
2023-01-01T10:35:48.626Z,94.5
2023-01-01T10:40:54.849Z,94.5
2023-01-01T10:46:01.134Z,94.5
2023-01-01T10:51:07.251Z,94.5
2023-01-01T10:56:13.456Z,94.5
2023-01-01T11:01:19.833Z,95.0
2023-01-01T11:06:25.894Z,95.0
2023-01-01T11:11:32.091Z,95.0
2023-01-01T11:16:38.323Z,95.0
2023-01-01T11:21:44.502Z,95.0
2023-01-01T11:26:54.889Z,95.0
2023-01-01T11:31:56.942Z,95.0
2023-01-01T11:37:03.146Z,95.0
2023-01-01T11:42:09.358Z,94.5
2023-01-01T11:47:15.566Z,94.5
2023-01-01T11:52:21.786Z,94.0
2023-01-01T11:57:28.004Z,94.0
2023-01-01T12:02:34.247Z,94.0
2023-01-01T12:07:40.420Z,93.5
2023-01-01T12:12:46.629Z,93.5
2023-01-01T12:17:52.854Z,93.0
2023-01-01T12:22:59.056Z,93.0
2023-01-01T12:28:05.273Z,93.0
2023-01-01T12:33:11.490Z,92.5
2023-01-01T12:38:17.707Z,92.5
2023-01-01T12:43:23.922Z,92.0
2023-01-01T12:48:29.131Z,92.0
2023-01-01T12:53:35.351Z,91.5
2023-01-01T12:58:41.549Z,91.5
2023-01-01T13:03:47.857Z,91.0
2023-01-01T13:08:53.967Z,91.0
2023-01-01T13:14:00.182Z,90.5
2023-01-01T13:19:06.393Z,90.5
2023-01-01T13:24:12.591Z,90.0
2023-01-01T13:29:18.804Z,90.0
2023-01-01T13:34:25.063Z,90.0
2023-01-01T13:39:31.223Z,90.0
2023-01-01T13:44:37.433Z,90.0
2023-01-01T13:49:43.645Z,89.5
2023-01-01T13:54:49.844Z,89.5
2023-01-01T13:59:56.074Z,89.5
2023-01-01T14:10:08.486Z,89.5
2023-01-01T14:15:14.709Z,89.0
2023-01-01T14:20:20.935Z,89.0
2023-01-01T14:25:27.115Z,89.0
2023-01-01T14:30:33.332Z,89.0
2023-01-01T14:35:39.554Z,89.0
2023-01-01T14:40:45.749Z,89.0
2023-01-01T14:45:51.985Z,89.0
2023-01-01T14:50:58.171Z,89.0
2023-01-01T14:56:04.371Z,89.0
2023-01-01T15:01:10.710Z,89.5
2023-01-01T15:06:16.812Z,89.5
2023-01-01T15:11:28.571Z,89.5
2023-01-01T15:16:33.292Z,89.5
2023-01-01T15:21:35.436Z,89.5
2023-01-01T15:26:41.647Z,89.5
2023-01-01T15:31:47.906Z,90.0
2023-01-01T15:36:54.084Z,90.0
2023-01-01T15:42:00.292Z,90.0
2023-01-01T15:47:06.528Z,90.0
2023-01-01T15:52:12.735Z,90.0
2023-01-01T15:57:18.939Z,90.0
2023-01-01T16:02:25.399Z,90.0
2023-01-01T16:07:31.360Z,90.5
2023-01-01T16:12:37.584Z,90.5
2023-01-01T16:17:43.943Z,90.5
2023-01-01T16:22:50.015Z,90.5
2023-01-01T16:27:56.244Z,90.5
2023-01-01T16:33:02.449Z,90.5
2023-01-01T16:38:08.658Z,90.5
2023-01-01T16:43:14.878Z,90.5
2023-01-01T16:48:21.084Z,91.0
2023-01-01T16:53:27.308Z,91.0
2023-01-01T17:08:45.969Z,91.0
2023-01-01T17:13:52.156Z,91.5
2023-01-01T17:24:04.593Z,91.5
2023-01-01T17:29:10.810Z,91.5
2023-01-01T17:34:17.029Z,92.0
2023-01-01T17:39:23.227Z,92.0
2023-01-01T17:44:29.464Z,92.5
2023-01-01T17:49:35.669Z,92.5
2023-01-01T17:54:41.870Z,92.5
2023-01-01T17:59:48.091Z,93.0
2023-01-01T18:04:54.297Z,93.0
2023-01-01T18:10:00.504Z,93.0
2023-01-01T18:15:06.718Z,93.5
2023-01-01T18:20:11.935Z,93.5
2023-01-01T18:25:18.148Z,94.0
2023-01-01T18:30:24.376Z,94.0
2023-01-01T18:35:30.561Z,94.0
2023-01-01T18:40:36.790Z,94.5
2023-01-01T18:45:42.992Z,94.5
2023-01-01T18:50:49.235Z,94.5
2023-01-01T18:55:55.408Z,95.0
2023-01-01T19:01:01.780Z,95.0
2023-01-01T19:06:07.820Z,95.0
2023-01-01T19:11:14.031Z,95.0
2023-01-01T19:16:24.089Z,95.5
2023-01-01T19:21:26.447Z,95.5
2023-01-01T19:26:32.654Z,95.5
2023-01-01T19:31:38.939Z,95.5
2023-01-01T19:36:45.072Z,96.0
2023-01-01T19:41:51.281Z,96.0
2023-01-01T19:46:57.561Z,96.0
2023-01-01T19:52:03.855Z,96.0
2023-01-01T19:57:09.903Z,96.0
2023-01-01T20:02:44.613Z,96.0
2023-01-01T20:07:22.333Z,96.5
2023-01-01T20:12:28.536Z,96.5
2023-01-01T20:17:34.742Z,96.5
2023-01-01T20:22:40.961Z,96.5
2023-01-01T20:27:53.180Z,96.5
2023-01-01T20:32:53.368Z,97.0
2023-01-01T20:37:59.580Z,97.0
2023-01-01T20:43:05.793Z,97.0
2023-01-01T20:48:16.325Z,97.0
2023-01-01T20:53:18.234Z,97.0
2023-01-01T20:58:24.727Z,97.0
2023-01-01T21:03:30.619Z,97.0
2023-01-01T21:08:36.826Z,97.0
2023-01-01T21:13:43.057Z,97.0
2023-01-01T21:18:49.258Z,97.0
2023-01-01T21:23:55.459Z,97.0
2023-01-01T21:29:01.664Z,97.5
2023-01-01T21:34:08.079Z,97.5
2023-01-01T21:39:14.084Z,97.5
2023-01-01T21:44:20.401Z,97.5
2023-01-01T21:49:26.503Z,97.5
2023-01-01T21:54:32.709Z,97.5
2023-01-01T21:59:38.916Z,97.5
2023-01-01T22:04:45.173Z,97.5
2023-01-01T22:09:51.338Z,97.5
2023-01-01T22:14:57.543Z,98.0
2023-01-01T22:20:03.748Z,98.0
2023-01-01T22:25:09.957Z,98.0
2023-01-01T22:30:16.166Z,98.0
2023-01-01T22:35:22.392Z,98.0
2023-01-01T22:40:28.579Z,98.0
2023-01-01T22:45:34.800Z,98.0
2023-01-01T22:50:41.000Z,98.0
2023-01-01T22:55:47.209Z,98.5
2023-01-01T23:00:53.427Z,98.5
2023-01-01T23:05:59.641Z,98.5
2023-01-01T23:11:05.831Z,98.5
2023-01-01T23:16:12.066Z,98.5
2023-01-01T23:21:22.839Z,98.5
2023-01-01T23:26:24.475Z,98.0
2023-01-01T23:31:30.743Z,98.0
2023-01-01T23:36:36.877Z,98.0
2023-01-01T23:41:43.121Z,98.0
2023-01-01T23:46:49.333Z,98.0
2023-01-01T23:51:54.524Z,98.5
2023-01-01T23:57:00.735Z,98.5
